Time;durP1;ratioP1;P1;durP2;ratioP2;P2;SDS_P1;SDS_P2;PMS_P1;PMS_P2;Temp;Humidity;BMP_temperature;BMP_pressure;BME280_temperature;BME280_humidity;BME280_pressure;Samples;Min_cycle;Max_cycle;Signal;HPM_P1;HPM_P2
2021/05/06 04:15:04;;;;;;;0.90;0.90;;;6.70;99.90;;;;;;4998926;28;20583;-77
2021/05/06 04:17:38;;;;;;;1.00;1.00;;;6.70;99.90;;;;;;5016181;28;20656;-77
2021/05/06 04:25:44;;;;;;;0.90;0.90;;;6.70;99.90;;;;;;5035504;23;20660;-76
2021/05/06 04:31:11;;;;;;;0.90;0.90;;;6.80;99.90;;;;;;4981760;28;20657;-76
2021/05/06 04:36:52;;;;;;;1.13;1.13;;;;;;;;;;4974953;28;20400;-76
2021/05/06 04:39:26;;;;;;;0.90;0.90;;;6.80;99.90;;;;;;4974505;28;20267;-76
2021/05/06 04:42:02;;;;;;;0.90;0.90;;;6.80;99.90;;;;;;4975090;28;20222;-76
2021/05/06 04:45:12;;;;;;;1.00;1.00;;;6.80;99.90;;;;;;4975628;28;20295;-76
2021/05/06 04:50:26;;;;;;;1.00;1.00;;;7.00;99.90;;;;;;4974493;28;20263;-76
2021/05/06 04:55:41;;;;;;;1.07;1.07;;;7.20;99.90;;;;;;4973920;28;20224;-77
2021/05/06 05:03:41;;;;;;;0.90;0.90;;;7.30;99.90;;;;;;4973949;28;20213;-75
2021/05/06 05:06:10;;;;;;;1.00;1.00;;;7.30;99.90;;;;;;4978955;28;20673;-75
2021/05/06 05:08:41;;;;;;;1.00;1.00;;;7.40;99.90;;;;;;4991767;28;20283;-75
2021/05/06 05:19:39;;;;;;;0.90;0.90;;;7.80;99.90;;;;;;4976397;28;20265;-78
2021/05/06 05:24:57;;;;;;;0.90;0.90;;;7.70;99.90;;;;;;4974996;28;20232;-79
2021/05/06 05:27:24;;;;;;;1.00;1.00;;;7.70;99.90;;;;;;4976094;28;20252;-79
2021/05/06 05:29:52;;;;;;;1.00;1.00;;;7.60;99.90;;;;;;4974897;28;20208;-76
2021/05/06 05:32:21;;;;;;;1.00;1.00;;;7.60;99.90;;;;;;4974908;28;20204;-77
2021/05/06 05:34:54;;;;;;;0.90;0.90;;;7.70;99.90;;;;;;4974397;28;20229;-77
2021/05/06 05:37:27;;;;;;;0.93;0.93;;;7.70;99.90;;;;;;4974329;28;20271;-78
2021/05/06 05:40:10;;;;;;;0.70;0.70;;;7.80;99.90;;;;;;4978772;28;20264;-78
2021/05/06 05:42:49;;;;;;;0.90;0.90;;;8.00;99.90;;;;;;4975058;28;20208;-75
2021/05/06 05:45:55;;;;;;;0.97;0.97;;;8.10;99.90;;;;;;4972987;28;20255;-74
2021/05/06 05:56:38;;;;;;;0.90;0.90;;;8.70;99.90;;;;;;4996382;28;20266;-75
2021/05/06 05:59:04;;;;;;;0.80;0.80;;;8.70;99.90;;;;;;4992775;28;20200;-75
2021/05/06 06:01:31;;;;;;;0.87;0.87;;;8.80;99.90;;;;;;4981539;28;20204;-75
2021/05/06 06:03:59;;;;;;;0.90;0.90;;;8.90;99.90;;;;;;4973141;28;20263;-75
2021/05/06 06:06:27;;;;;;;0.97;0.97;;;8.90;99.90;;;;;;4988094;28;20227;-76
2021/05/06 06:08:54;;;;;;;0.93;0.93;;;;;;;;;;4988971;28;20270;-74
2021/05/06 06:11:21;;;;;;;0.80;0.80;;;9.00;99.90;;;;;;4975399;28;20201;-75
2021/05/06 06:13:50;;;;;;;0.80;0.80;;;9.10;99.90;;;;;;4972894;28;20244;-75
2021/05/06 06:16:22;;;;;;;0.80;0.80;;;9.20;99.90;;;;;;4982045;28;20205;-75
2021/05/06 06:18:52;;;;;;;0.90;0.90;;;9.10;99.90;;;;;;4987021;28;20207;-74
2021/05/06 06:21:22;;;;;;;1.10;1.10;;;9.10;99.90;;;;;;4992532;28;20227;-75
2021/05/06 06:23:50;;;;;;;0.80;0.80;;;9.20;99.90;;;;;;4977706;28;20244;-75
2021/05/06 06:26:17;;;;;;;0.80;0.80;;;9.40;99.90;;;;;;4973338;28;20205;-74
2021/05/06 06:28:45;;;;;;;0.70;0.70;;;9.40;99.60;;;;;;4980049;28;20248;-75
2021/05/06 06:31:16;;;;;;;0.80;0.80;;;9.50;99.30;;;;;;4981392;28;20617;-76
2021/05/06 06:33:44;;;;;;;0.80;0.80;;;9.70;99.90;;;;;;4981492;28;20197;-76
2021/05/06 06:36:12;;;;;;;0.80;0.80;;;9.60;98.60;;;;;;4980103;28;20250;-74
2021/05/06 06:38:39;;;;;;;0.80;0.80;;;9.70;99.00;;;;;;4980383;28;20196;-74
2021/05/06 06:41:09;;;;;;;0.70;0.70;;;9.80;98.40;;;;;;4981250;28;20251;-74
2021/05/06 06:43:36;;;;;;;0.80;0.80;;;9.70;99.90;;;;;;4981903;28;20204;-74
2021/05/06 06:46:04;;;;;;;0.80;0.80;;;9.70;97.90;;;;;;4982981;28;20657;-75
2021/05/06 06:48:31;;;;;;;0.80;0.80;;;9.70;97.70;;;;;;4981585;28;20259;-75
2021/05/06 06:50:58;;;;;;;0.90;0.90;;;9.70;98.60;;;;;;4992162;28;20250;-76
2021/05/06 06:53:24;;;;;;;0.80;0.80;;;9.70;98.00;;;;;;4992451;28;20203;-76
2021/05/06 06:55:52;;;;;;;0.73;0.73;;;9.80;98.50;;;;;;4983307;28;20248;-76
2021/05/06 06:58:48;;;;;;;0.80;0.80;;;9.90;98.80;;;;;;4987480;28;20665;-79
2021/05/06 07:01:19;;;;;;;0.80;0.80;;;10.00;97.50;;;;;;4987421;28;20283;-77
2021/05/06 07:03:55;;;;;;;0.88;0.88;;;9.90;97.70;;;;;;4973902;28;20221;-77
2021/05/06 07:06:32;;;;;;;0.80;0.80;;;9.90;97.90;;;;;;4974111;28;20225;-76
2021/05/06 07:09:01;;;;;;;0.80;0.80;;;9.90;96.40;;;;;;4973996;28;20630;-75
2021/05/06 07:11:37;;;;;;;0.70;0.70;;;9.90;96.40;;;;;;4988648;28;20697;-79
2021/05/06 07:14:19;;;;;;;0.80;0.80;;;10.00;96.70;;;;;;4976696;28;20595;-77
2021/05/06 07:17:13;;;;;;;0.80;0.80;;;10.10;96.40;;;;;;4983687;28;20610;-78
2021/05/06 07:19:54;;;;;;;0.70;0.70;;;10.40;95.80;;;;;;4974629;28;20603;-79
2021/05/06 07:22:23;;;;;;;0.70;0.70;;;10.60;94.80;;;;;;4974230;28;20259;-77
2021/05/06 07:24:56;;;;;;;0.70;0.70;;;10.50;95.30;;;;;;4976984;28;20237;-79
2021/05/06 07:27:38;;;;;;;0.80;0.80;;;10.50;94.80;;;;;;4977538;28;20315;-80
2021/05/06 07:30:38;;;;;;;0.75;0.75;;;10.50;94.40;;;;;;4977176;28;20267;-78
2021/05/06 07:33:11;;;;;;;0.70;0.70;;;10.60;93.70;;;;;;4977099;28;20339;-78
2021/05/06 07:35:43;;;;;;;0.70;0.70;;;10.80;93.20;;;;;;4976788;28;20228;-78
2021/05/06 07:38:14;;;;;;;0.73;0.73;;;10.90;93.20;;;;;;4977498;28;20189;-79
2021/05/06 07:40:55;;;;;;;0.70;0.70;;;11.20;92.50;;;;;;4978043;28;20204;-77
2021/05/06 07:43:29;;;;;;;0.80;0.80;;;11.20;92.80;;;;;;4978042;28;20276;-77
2021/05/06 07:46:00;;;;;;;0.70;0.70;;;11.10;91.80;;;;;;4977052;28;20248;-80
2021/05/06 07:48:33;;;;;;;0.77;0.77;;;11.20;91.50;;;;;;4977485;28;20209;-80
2021/05/06 07:51:06;;;;;;;0.70;0.70;;;11.30;91.40;;;;;;4976474;28;20204;-77
2021/05/06 07:53:42;;;;;;;0.80;0.80;;;11.10;99.90;;;;;;4976859;28;20686;-78
2021/05/06 07:56:17;;;;;;;0.70;0.70;;;11.00;90.80;;;;;;4977987;28;20204;-78
2021/05/06 07:58:48;;;;;;;0.70;0.70;;;11.00;90.90;;;;;;4978135;28;20220;-78
2021/05/06 08:01:20;;;;;;;0.80;0.80;;;11.10;91.00;;;;;;4977774;28;20189;-80
2021/05/06 08:03:52;;;;;;;0.70;0.70;;;11.20;91.50;;;;;;4976854;28;20228;-80
2021/05/06 08:06:35;;;;;;;0.80;0.80;;;10.90;99.90;;;;;;4978204;28;20239;-78
2021/05/06 08:09:04;;;;;;;0.70;0.70;;;10.80;89.20;;;;;;4984376;28;20223;-78
2021/05/06 08:11:32;;;;;;;0.90;0.90;;;11.10;89.10;;;;;;4986835;28;20718;-77
2021/05/06 08:13:59;;;;;;;0.70;0.70;;;11.10;89.20;;;;;;4994493;28;20229;-77
2021/05/06 08:16:26;;;;;;;0.70;0.70;;;11.30;88.20;;;;;;4995714;28;20622;-77
2021/05/06 08:18:53;;;;;;;0.77;0.77;;;11.60;86.80;;;;;;4997474;28;20234;-77
2021/05/06 08:21:20;;;;;;;0.73;0.73;;;11.80;84.50;;;;;;4996887;28;20204;-79
2021/05/06 08:23:47;;;;;;;0.70;0.70;;;11.50;82.70;;;;;;4997243;28;20708;-79
2021/05/06 08:26:14;;;;;;;0.73;0.73;;;11.30;84.50;;;;;;4996523;28;20192;-77
2021/05/06 08:28:50;;;;;;;0.70;0.70;;;11.40;84.00;;;;;;4996096;28;20262;-78
2021/05/06 08:31:18;;;;;;;0.70;0.70;;;11.30;84.70;;;;;;4995080;28;20204;-77
2021/05/06 08:33:45;;;;;;;0.60;0.60;;;11.80;96.20;;;;;;4993915;28;20262;-78
2021/05/06 08:36:12;;;;;;;0.70;0.70;;;11.50;83.70;;;;;;4994663;28;20266;-77
2021/05/06 08:38:40;;;;;;;0.60;0.60;;;11.50;83.70;;;;;;4993984;28;20727;-77
2021/05/06 08:41:07;;;;;;;0.70;0.70;;;11.30;97.40;;;;;;4994440;28;20189;-77
2021/05/06 08:43:37;;;;;;;0.70;0.70;;;11.50;97.90;;;;;;4993841;28;20207;-77
2021/05/06 08:46:04;;;;;;;0.80;0.80;;;11.50;86.90;;;;;;4994499;28;20250;-76
2021/05/06 08:48:40;;;;;;;0.70;0.70;;;11.50;87.20;;;;;;4993764;28;20223;-77
2021/05/06 08:51:08;;;;;;;0.70;0.70;;;11.50;97.00;;;;;;4996593;28;20768;-77
2021/05/06 08:53:35;;;;;;;0.70;0.70;;;11.70;98.00;;;;;;4996648;28;20727;-77
2021/05/06 08:56:02;;;;;;;0.70;0.70;;;11.50;97.60;;;;;;4993826;28;20204;-77
2021/05/06 08:58:28;;;;;;;0.70;0.70;;;11.50;86.10;;;;;;4994952;28;20200;-77
2021/05/06 09:00:55;;;;;;;0.70;0.70;;;11.50;86.70;;;;;;4994191;28;20203;-77
2021/05/06 09:03:22;;;;;;;0.82;0.82;;;11.50;86.20;;;;;;4993667;28;20281;-77
2021/05/06 09:06:12;;;;;;;0.70;0.70;;;11.40;86.80;;;;;;4992257;28;20223;-77
2021/05/06 09:08:41;;;;;;;0.70;0.70;;;11.50;87.60;;;;;;4974994;28;20231;-76
2021/05/06 09:11:08;;;;;;;0.80;0.80;;;11.80;86.70;;;;;;4981363;28;20630;-76
2021/05/06 09:13:36;;;;;;;0.60;0.60;;;11.70;97.70;;;;;;4987208;28;20252;-78
2021/05/06 09:16:04;;;;;;;0.80;0.80;;;11.90;84.90;;;;;;4980267;28;20204;-78
2021/05/06 09:18:42;;;;;;;0.70;0.70;;;11.50;84.00;;;;;;4983443;28;20203;-79
2021/05/06 09:21:26;;;;;;;0.70;0.70;;;11.40;85.20;;;;;;5002098;28;20618;-79
2021/05/06 09:24:06;;;;;;;0.73;0.73;;;11.40;86.20;;;;;;5004179;28;20235;-80
2021/05/06 09:26:34;;;;;;;0.70;0.70;;;11.50;86.50;;;;;;5004608;28;20538;-80
2021/05/06 09:29:03;;;;;;;0.70;0.70;;;11.60;86.50;;;;;;4986714;28;20256;-78
2021/05/06 09:31:35;;;;;;;0.70;0.70;;;11.70;86.20;;;;;;4990732;28;20265;-80
2021/05/06 09:34:04;;;;;;;0.68;0.68;;;11.70;85.10;;;;;;4984877;28;20291;-79
2021/05/06 09:36:32;;;;;;;0.70;0.70;;;11.80;86.40;;;;;;4978737;28;20259;-77
2021/05/06 09:39:00;;;;;;;0.70;0.70;;;11.70;85.10;;;;;;4986189;28;20223;-78
2021/05/06 09:41:29;;;;;;;0.70;0.70;;;11.90;85.50;;;;;;4989353;28;20669;-81
2021/05/06 09:44:07;;;;;;;0.70;0.70;;;11.90;84.00;;;;;;5001774;28;20219;-81
2021/05/06 09:46:56;;;;;;;0.70;0.70;;;11.90;84.00;;;;;;5002636;28;20211;-78
2021/05/06 09:49:24;;;;;;;0.60;0.60;;;12.00;83.60;;;;;;5003400;28;20230;-78
2021/05/06 09:51:54;;;;;;;0.60;0.60;;;12.30;83.10;;;;;;5006264;28;20239;-79
2021/05/06 09:54:23;;;;;;;0.70;0.70;;;12.40;81.70;;;;;;5006989;28;20238;-80
2021/05/06 09:56:56;;;;;;;0.60;0.60;;;12.30;81.40;;;;;;4998736;28;20394;-82
2021/05/06 09:59:24;;;;;;;0.60;0.60;;;12.10;81.90;;;;;;4990926;28;20560;-79
2021/05/06 10:01:52;;;;;;;0.68;0.68;;;12.00;82.30;;;;;;4994415;28;20280;-79
2021/05/06 10:04:21;;;;;;;0.60;0.60;;;11.80;95.60;;;;;;4996978;28;20216;-79
2021/05/06 10:07:08;;;;;;;0.70;0.70;;;12.00;81.70;;;;;;4996826;28;20196;-79
2021/05/06 10:09:56;;;;;;;0.70;0.70;;;12.00;80.40;;;;;;4987558;28;20263;-80
2021/05/06 10:12:25;;;;;;;0.60;0.60;;;11.90;80.20;;;;;;4984539;28;20204;-79
2021/05/06 10:14:53;;;;;;;0.70;0.70;;;12.00;79.00;;;;;;4978241;28;20232;-77
2021/05/06 10:17:21;;;;;;;0.65;0.65;;;12.00;79.80;;;;;;4981470;28;20583;-77
2021/05/06 10:19:50;;;;;;;0.70;0.70;;;12.30;80.00;;;;;;4994571;28;20246;-77
2021/05/06 10:22:21;;;;;;;0.70;0.70;;;12.40;77.60;;;;;;4989265;28;20669;-77
2021/05/06 10:24:49;;;;;;;0.60;0.60;;;12.30;94.50;;;;;;4999181;23;20212;-73
2021/05/06 10:27:18;;;;;;;0.65;0.65;;;12.30;78.20;;;;;;4984508;28;20219;-73
2021/05/06 10:29:46;;;;;;;0.60;0.60;;;12.30;78.20;;;;;;4973265;28;20292;-73
2021/05/06 10:32:15;;;;;;;0.60;0.60;;;12.40;77.30;;;;;;4973719;28;20208;-73
2021/05/06 10:34:43;;;;;;;0.70;0.70;;;12.40;94.30;;;;;;4971707;28;20208;-74
2021/05/06 10:37:10;;;;;;;0.60;0.60;;;12.40;77.80;;;;;;4954365;28;20242;-73
2021/05/06 10:39:39;;;;;;;0.60;0.60;;;12.50;77.00;;;;;;4954090;28;20205;-73
2021/05/06 10:42:37;;;;;;;0.70;0.70;;;12.50;77.40;;;;;;4954411;28;20212;-73
2021/05/06 10:45:32;;;;;;;0.60;0.60;;;12.30;82.70;;;;;;4953367;28;20225;-75
2021/05/06 10:47:59;;;;;;;0.70;0.70;;;12.30;87.10;;;;;;4953692;28;20205;-74
2021/05/06 10:50:34;;;;;;;0.60;0.60;;;12.30;86.30;;;;;;4953483;28;20208;-74
2021/05/06 10:53:01;;;;;;;0.70;0.70;;;12.30;85.40;;;;;;4956651;28;20200;-74
2021/05/06 10:55:48;;;;;;;0.60;0.60;;;12.70;83.10;;;;;;4962760;28;20217;-74
2021/05/06 10:58:34;;;;;;;0.60;0.60;;;12.60;80.70;;;;;;4969074;28;20189;-74
2021/05/06 11:01:21;;;;;;;0.70;0.70;;;12.40;79.70;;;;;;4966124;28;21068;-74
2021/05/06 11:04:07;;;;;;;0.63;0.63;;;12.50;78.40;;;;;;4966757;28;20201;-74
2021/05/06 11:06:44;;;;;;;0.68;0.68;;;12.60;78.80;;;;;;4965833;28;20724;-74
2021/05/06 11:10:04;;;;;;;0.70;0.70;;;12.70;78.10;;;;;;4963487;28;20219;-74
2021/05/06 11:12:54;;;;;;;0.70;0.70;;;12.70;78.00;;;;;;4957311;28;20620;-74
2021/05/06 11:15:23;;;;;;;0.60;0.60;;;12.90;77.40;;;;;;4956607;28;20717;-74
2021/05/06 11:17:51;;;;;;;0.68;0.68;;;12.90;72.10;;;;;;4956708;28;20590;-74
2021/05/06 11:20:41;;;;;;;0.60;0.60;;;12.90;71.00;;;;;;4957418;28;20201;-72
2021/05/06 11:23:29;;;;;;;0.70;0.70;;;13.00;70.70;;;;;;4976557;28;20235;-73
2021/05/06 11:26:11;;;;;;;0.60;0.60;;;13.00;71.10;;;;;;4967408;28;20316;-74
2021/05/06 11:28:43;;;;;;;0.60;0.60;;;12.90;68.90;;;;;;4958571;29;20229;-74
2021/05/06 11:31:10;;;;;;;0.60;0.60;;;12.90;69.20;;;;;;4956579;29;20569;-73
2021/05/06 11:33:37;;;;;;;0.60;0.60;;;12.90;68.90;;;;;;4956574;29;20292;-72
2021/05/06 11:36:07;;;;;;;0.70;0.70;;;12.90;67.80;;;;;;4956047;28;20300;-74
2021/05/06 11:38:50;;;;;;;0.60;0.60;;;13.20;69.30;;;;;;4956233;29;20643;-74
2021/05/06 11:41:20;;;;;;;0.63;0.63;;;13.30;67.00;;;;;;4956550;28;20271;-72
2021/05/06 11:43:50;;;;;;;0.60;0.60;;;13.60;66.80;;;;;;4955972;29;20662;-72
2021/05/06 11:46:18;;;;;;;0.60;0.60;;;13.50;63.20;;;;;;4956049;28;20264;-74
2021/05/06 11:48:47;;;;;;;0.70;0.70;;;13.00;61.90;;;;;;4955896;29;20732;-74
2021/05/06 11:51:29;;;;;;;0.50;0.50;;;13.00;63.10;;;;;;4955963;28;20233;-73
2021/05/06 11:54:05;;;;;;;0.60;0.60;;;13.10;64.10;;;;;;4956125;29;20205;-73
2021/05/06 11:56:33;;;;;;;0.60;0.60;;;13.20;64.60;;;;;;4960542;28;20224;-74
2021/05/06 11:59:01;;;;;;;0.60;0.60;;;13.20;63.90;;;;;;4955936;29;20205;-75
2021/05/06 12:01:29;;;;;;;0.60;0.60;;;13.30;64.30;;;;;;4965911;28;20205;-75
2021/05/06 12:03:57;;;;;;;0.50;0.50;;;13.20;64.30;;;;;;4975187;28;20255;-75
2021/05/06 12:06:32;;;;;;;0.70;0.70;;;13.10;65.10;;;;;;4975392;28;20255;-74
2021/05/06 12:09:00;;;;;;;0.60;0.60;;;13.10;68.40;;;;;;4974669;28;20216;-75
2021/05/06 12:11:34;;;;;;;0.70;0.70;;;13.20;70.70;;;;;;4975149;28;20678;-74
2021/05/06 12:14:02;;;;;;;0.60;0.60;;;13.30;73.10;;;;;;4972078;28;20267;-75
2021/05/06 12:16:29;;;;;;;0.60;0.60;;;13.40;73.60;;;;;;4965531;28;20590;-75
2021/05/06 12:19:03;;;;;;;0.50;0.50;;;13.50;73.40;;;;;;4963600;28;20189;-75
2021/05/06 12:21:43;;;;;;;0.60;0.60;;;13.30;70.80;;;;;;4965238;28;20274;-75
2021/05/06 12:24:12;;;;;;;0.60;0.60;;;13.00;72.30;;;;;;4966151;28;20260;-75
2021/05/06 12:26:41;;;;;;;0.60;0.60;;;13.20;73.10;;;;;;4964722;28;20225;-74
2021/05/06 12:29:20;;;;;;;0.50;0.50;;;13.10;73.30;;;;;;4965030;28;20221;-74
2021/05/06 12:31:49;;;;;;;0.60;0.60;;;13.20;73.70;;;;;;4965115;28;20280;-73
2021/05/06 12:34:19;;;;;;;0.60;0.60;;;13.00;73.30;;;;;;4963632;28;20213;-73
2021/05/06 12:36:55;;;;;;;0.52;0.52;;;13.00;74.20;;;;;;4974454;28;20228;-74
2021/05/06 12:39:23;;;;;;;0.60;0.60;;;12.90;73.70;;;;;;4974751;28;20241;-74
2021/05/06 12:41:55;;;;;;;0.63;0.63;;;13.00;73.10;;;;;;4974643;28;20630;-73
2021/05/06 12:44:50;;;;;;;0.50;0.50;;;13.00;73.90;;;;;;4974758;28;20673;-73
2021/05/06 12:47:19;;;;;;;0.50;0.50;;;13.10;70.20;;;;;;4974484;28;20219;-73
2021/05/06 12:49:47;;;;;;;0.60;0.60;;;13.20;68.50;;;;;;4974481;28;20227;-73
2021/05/06 12:52:31;;;;;;;0.60;0.60;;;13.40;68.10;;;;;;4974823;28;20669;-73
2021/05/06 12:54:59;;;;;;;0.60;0.60;;;13.40;69.80;;;;;;4974446;28;20224;-73
2021/05/06 12:57:26;;;;;;;0.60;0.60;;;13.30;71.40;;;;;;4974308;28;20213;-74
2021/05/06 12:59:54;;;;;;;0.60;0.60;;;13.00;71.60;;;;;;4974340;28;20204;-73
2021/05/06 13:02:21;;;;;;;0.70;0.70;;;12.90;73.30;;;;;;4975218;28;20690;-74
2021/05/06 13:04:50;;;;;;;0.60;0.60;;;12.70;92.00;;;;;;4974419;28;20210;-74
2021/05/06 13:07:18;;;;;;;0.60;0.60;;;12.90;73.60;;;;;;4974220;28;20205;-75
2021/05/06 13:09:47;;;;;;;0.60;0.60;;;13.10;73.50;;;;;;4975050;28;20618;-75
2021/05/06 13:12:18;;;;;;;0.60;0.60;;;13.00;72.60;;;;;;4974090;28;20209;-74
2021/05/06 13:14:48;;;;;;;0.60;0.60;;;12.90;91.90;;;;;;4973990;28;20219;-74
2021/05/06 13:17:26;;;;;;;0.50;0.50;;;12.60;73.50;;;;;;4974183;28;20662;-74
2021/05/06 13:19:54;;;;;;;0.60;0.60;;;12.40;72.90;;;;;;4973772;28;20247;-74
2021/05/06 13:22:22;;;;;;;0.70;0.70;;;12.10;73.70;;;;;;4973131;28;20698;-74
2021/05/06 13:24:51;;;;;;;0.70;0.70;;;11.80;90.90;;;;;;4973993;28;20213;-73
2021/05/06 13:27:20;;;;;;;0.50;0.50;;;11.80;71.10;;;;;;4974019;28;20447;-74
2021/05/06 13:29:55;;;;;;;0.60;0.60;;;11.90;71.10;;;;;;4973519;28;20228;-74
2021/05/06 13:32:32;;;;;;;0.60;0.60;;;12.10;71.00;;;;;;4973945;28;20232;-74
2021/05/06 13:34:59;;;;;;;0.70;0.70;;;12.10;71.10;;;;;;4973523;28;20602;-75
2021/05/06 13:37:37;;;;;;;0.70;0.70;;;12.20;71.00;;;;;;4973745;28;20576;-74
2021/05/06 13:40:05;;;;;;;0.70;0.70;;;12.40;71.10;;;;;;4973360;28;20254;-73
2021/05/06 13:42:32;;;;;;;0.70;0.70;;;12.70;71.80;;;;;;4973756;28;20267;-73
2021/05/06 13:44:59;;;;;;;0.60;0.60;;;12.60;73.00;;;;;;4973448;28;20709;-74
2021/05/06 13:47:27;;;;;;;0.60;0.60;;;12.70;73.90;;;;;;4973703;28;20215;-74
2021/05/06 13:49:54;;;;;;;0.60;0.60;;;12.70;75.10;;;;;;4973456;28;20229;-74
2021/05/06 13:52:24;;;;;;;0.60;0.60;;;13.00;76.20;;;;;;4973687;28;20200;-74
2021/05/06 13:54:51;;;;;;;0.60;0.60;;;13.00;75.50;;;;;;4973319;28;20224;-72
2021/05/06 13:57:18;;;;;;;0.60;0.60;;;12.40;78.10;;;;;;4973618;28;20670;-73
2021/05/06 13:59:45;;;;;;;0.70;0.70;;;12.20;79.40;;;;;;4973407;28;20200;-72
2021/05/06 14:02:15;;;;;;;0.70;0.70;;;12.20;81.00;;;;;;4973181;28;20212;-73
2021/05/06 14:04:43;;;;;;;0.60;0.60;;;11.90;95.30;;;;;;4973600;28;20308;-73
2021/05/06 14:07:10;;;;;;;0.63;0.63;;;12.00;81.00;;;;;;4973759;28;20212;-74
2021/05/06 14:09:37;;;;;;;0.70;0.70;;;12.10;81.20;;;;;;4973341;28;20216;-72
2021/05/06 14:12:04;;;;;;;0.70;0.70;;;11.80;81.60;;;;;;4973312;28;20260;-73
2021/05/06 14:14:31;;;;;;;0.70;0.70;;;11.90;93.00;;;;;;4972830;28;20201;-73
2021/05/06 14:16:58;;;;;;;0.70;0.70;;;11.70;83.60;;;;;;4972987;28;20205;-73
2021/05/06 14:19:25;;;;;;;0.70;0.70;;;11.50;83.50;;;;;;4973285;28;20208;-73
2021/05/06 14:21:53;;;;;;;0.70;0.70;;;11.60;84.00;;;;;;4973201;28;20400;-73
2021/05/06 14:24:21;;;;;;;0.70;0.70;;;11.60;83.60;;;;;;4972967;28;20202;-74
2021/05/06 14:26:49;;;;;;;0.60;0.60;;;11.60;83.30;;;;;;4973059;28;20232;-73
2021/05/06 14:29:17;;;;;;;0.60;0.60;;;11.70;84.10;;;;;;4972869;28;20228;-74
2021/05/06 14:31:44;;;;;;;0.50;0.50;;;11.80;84.20;;;;;;4973349;28;20755;-74
2021/05/06 14:34:11;;;;;;;0.60;0.60;;;12.20;85.70;;;;;;4976792;28;20215;-73
2021/05/06 14:36:38;;;;;;;0.70;0.70;;;12.20;83.70;;;;;;4971039;28;20220;-74
2021/05/06 14:39:08;;;;;;;0.52;0.52;;;12.20;85.60;;;;;;4966193;28;20201;-72
2021/05/06 14:41:38;;;;;;;0.50;0.50;;;12.20;83.60;;;;;;4966179;28;20193;-74
2021/05/06 14:44:05;;;;;;;0.60;0.60;;;12.60;85.30;;;;;;4966173;28;20203;-74
2021/05/06 14:46:32;;;;;;;0.57;0.57;;;12.60;83.10;;;;;;4968490;28;20271;-74
2021/05/06 14:48:59;;;;;;;0.50;0.50;;;12.70;83.30;;;;;;4966593;28;20228;-73
2021/05/06 14:51:26;;;;;;;0.60;0.60;;;13.10;82.10;;;;;;4966061;28;20205;-73
2021/05/06 14:53:52;;;;;;;0.50;0.50;;;13.20;78.40;;;;;;4976411;28;20333;-73
2021/05/06 14:56:19;;;;;;;0.60;0.60;;;13.30;79.20;;;;;;4976588;28;20255;-73
2021/05/06 14:58:47;;;;;;;0.60;0.60;;;14.20;99.90;;;;;;4976615;28;20208;-73
2021/05/06 15:01:14;;;;;;;0.50;0.50;;;14.20;75.90;;;;;;4976833;28;20201;-72
2021/05/06 15:03:41;;;;;;;0.60;0.60;;;14.00;75.90;;;;;;4976389;28;20200;-73
2021/05/06 15:06:08;;;;;;;0.50;0.50;;;13.70;74.40;;;;;;4976539;28;20224;-73
2021/05/06 15:08:42;;;;;;;0.60;0.60;;;13.60;75.80;;;;;;4976152;28;20209;-72
2021/05/06 15:11:10;;;;;;;0.60;0.60;;;13.40;75.70;;;;;;4976676;28;20223;-73
2021/05/06 15:13:37;;;;;;;0.50;0.50;;;13.50;74.80;;;;;;4976285;28;20685;-73
2021/05/06 15:16:05;;;;;;;0.50;0.50;;;13.40;73.90;;;;;;4976193;28;20221;-72
2021/05/06 15:18:32;;;;;;;0.60;0.60;;;13.10;74.50;;;;;;4976133;28;20295;-71
2021/05/06 15:20:59;;;;;;;0.60;0.60;;;12.90;75.90;;;;;;4976248;28;20588;-72
2021/05/06 15:23:26;;;;;;;0.50;0.50;;;12.90;76.40;;;;;;4976077;28;20208;-72
2021/05/06 15:25:53;;;;;;;0.63;0.63;;;12.80;77.00;;;;;;4975817;28;20283;-72
2021/05/06 15:28:20;;;;;;;0.50;0.50;;;12.70;77.70;;;;;;4976114;28;20212;-73
2021/05/06 15:30:48;;;;;;;0.60;0.60;;;12.80;77.50;;;;;;4969418;28;20252;-73
2021/05/06 15:33:16;;;;;;;0.60;0.60;;;12.70;77.70;;;;;;4964571;28;20232;-72
2021/05/06 15:35:43;;;;;;;0.70;0.70;;;12.50;78.40;;;;;;4965885;28;20221;-73
2021/05/06 15:38:10;;;;;;;0.60;0.60;;;12.50;79.50;;;;;;4964651;28;20205;-73
2021/05/06 15:40:39;;;;;;;0.52;0.52;;;12.40;78.60;;;;;;4965197;28;20198;-74
2021/05/06 15:43:07;;;;;;;0.60;0.60;;;12.60;79.00;;;;;;4966098;28;20304;-74
2021/05/06 15:45:40;;;;;;;0.60;0.60;;;12.70;79.10;;;;;;4972811;28;20220;-74
2021/05/06 15:48:08;;;;;;;0.50;0.50;;;12.70;77.70;;;;;;4966623;28;20268;-73
2021/05/06 15:50:36;;;;;;;0.60;0.60;;;12.80;78.00;;;;;;4957489;28;20671;-73
2021/05/06 15:53:02;;;;;;;0.55;0.55;;;12.80;78.50;;;;;;4958852;28;20698;-73
2021/05/06 15:55:30;;;;;;;0.60;0.60;;;12.90;78.00;;;;;;4966117;28;20212;-76
2021/05/06 15:57:57;;;;;;;0.60;0.60;;;12.70;77.90;;;;;;4971306;28;20260;-75
2021/05/06 16:00:25;;;;;;;0.60;0.60;;;12.70;79.40;;;;;;4973094;28;20193;-73
2021/05/06 16:02:56;;;;;;;0.60;0.60;;;12.70;78.00;;;;;;4975699;28;20673;-74
2021/05/06 16:05:26;;;;;;;0.60;0.60;;;12.70;78.40;;;;;;4975723;28;20303;-74
2021/05/06 16:07:53;;;;;;;0.50;0.50;;;13.00;79.20;;;;;;4959440;28;20500;-72
2021/05/06 16:10:21;;;;;;;0.60;0.60;;;13.20;79.00;;;;;;4955646;29;20284;-77
2021/05/06 16:12:48;;;;;;;0.60;0.60;;;13.00;78.90;;;;;;4954745;29;20252;-77
2021/05/06 16:15:15;;;;;;;0.68;0.68;;;13.00;78.70;;;;;;4955189;28;20240;-77
2021/05/06 16:17:42;;;;;;;0.60;0.60;;;12.90;79.40;;;;;;4956010;29;20213;-77
2021/05/06 16:20:14;;;;;;;0.50;0.50;;;13.00;78.90;;;;;;4956272;29;20268;-77
2021/05/06 16:22:41;;;;;;;0.60;0.60;;;13.00;79.30;;;;;;4957160;28;20684;-75
2021/05/06 16:25:11;;;;;;;0.50;0.50;;;13.00;78.80;;;;;;4956049;28;20303;-77
2021/05/06 16:27:39;;;;;;;0.50;0.50;;;13.00;78.90;;;;;;4967148;28;20700;-75
2021/05/06 16:30:07;;;;;;;0.50;0.50;;;13.00;79.20;;;;;;4974591;28;20279;-76
2021/05/06 16:32:35;;;;;;;0.60;0.60;;;13.10;79.70;;;;;;4975215;28;20239;-76
2021/05/06 16:35:05;;;;;;;0.60;0.60;;;13.00;77.90;;;;;;4975063;28;20232;-74
2021/05/06 16:37:36;;;;;;;0.60;0.60;;;12.70;77.50;;;;;;4976375;28;20200;-77
2021/05/06 16:40:08;;;;;;;0.60;0.60;;;12.70;78.20;;;;;;4979458;28;20205;-78
2021/05/06 16:43:07;;;;;;;0.60;0.60;;;12.80;77.50;;;;;;4981791;28;20247;-78
2021/05/06 16:45:33;;;;;;;0.63;0.63;;;12.70;76.70;;;;;;4979974;28;20257;-77
2021/05/06 16:48:00;;;;;;;0.60;0.60;;;12.40;77.20;;;;;;4967106;28;20201;-76
2021/05/06 16:50:27;;;;;;;0.50;0.50;;;12.40;77.70;;;;;;4973980;28;20228;-77
2021/05/06 16:52:54;;;;;;;0.60;0.60;;;12.50;77.70;;;;;;4972113;28;20244;-76
2021/05/06 16:55:21;;;;;;;0.60;0.60;;;12.30;77.60;;;;;;4966156;28;20307;-77
2021/05/06 16:57:49;;;;;;;0.50;0.50;;;12.30;78.50;;;;;;4966379;28;20204;-74
2021/05/06 17:00:16;;;;;;;0.60;0.60;;;12.10;78.90;;;;;;4974846;28;20279;-78
2021/05/06 17:02:43;;;;;;;0.60;0.60;;;12.10;80.00;;;;;;4974526;28;20279;-76
2021/05/06 17:05:12;;;;;;;0.63;0.63;;;12.30;80.70;;;;;;4968528;28;20272;-77
2021/05/06 17:07:39;;;;;;;0.60;0.60;;;12.20;79.10;;;;;;4964389;28;20208;-77
2021/05/06 17:10:07;;;;;;;0.60;0.60;;;12.20;79.60;;;;;;4958927;29;20245;-79
2021/05/06 17:12:34;;;;;;;0.60;0.60;;;12.30;80.50;;;;;;4961824;28;20205;-79
2021/05/06 17:15:03;;;;;;;0.60;0.60;;;12.50;82.40;;;;;;4958171;28;20312;-79
2021/05/06 17:17:30;;;;;;;0.60;0.60;;;12.50;80.30;;;;;;4958230;29;20201;-79
2021/05/06 17:19:57;;;;;;;0.70;0.70;;;12.40;79.90;;;;;;4958272;29;20201;-79
2021/05/06 17:22:24;;;;;;;0.50;0.50;;;12.30;79.10;;;;;;4961728;29;20749;-79
2021/05/06 17:24:51;;;;;;;0.63;0.63;;;12.10;97.90;;;;;;4961261;28;20209;-79
2021/05/06 17:27:18;;;;;;;0.65;0.65;;;12.10;78.70;;;;;;4962013;29;20194;-78
2021/05/06 17:29:46;;;;;;;0.60;0.60;;;12.70;79.50;;;;;;4962379;29;20236;-79
2021/05/06 17:32:13;;;;;;;0.70;0.70;;;12.10;79.70;;;;;;4962851;29;20206;-79
2021/05/06 17:34:41;;;;;;;0.80;0.80;;;12.10;98.50;;;;;;4962849;28;20201;-80
2021/05/06 17:37:08;;;;;;;0.60;0.60;;;12.00;80.10;;;;;;4959729;28;20220;-77
2021/05/06 17:39:35;;;;;;;0.60;0.60;;;12.10;79.60;;;;;;4954560;29;20208;-77
2021/05/06 17:42:02;;;;;;;0.70;0.70;;;12.20;79.70;;;;;;4954601;29;20578;-77
2021/05/06 17:44:29;;;;;;;0.60;0.60;;;12.00;79.90;;;;;;4954398;28;20209;-77
2021/05/06 17:47:03;;;;;;;0.60;0.60;;;11.90;80.60;;;;;;4954531;28;20753;-76
2021/05/06 17:49:32;;;;;;;0.70;0.70;;;11.70;82.70;;;;;;4954557;29;20248;-77
2021/05/06 17:51:59;;;;;;;0.60;0.60;;;11.80;80.80;;;;;;4955873;29;20209;-76
2021/05/06 17:54:26;;;;;;;0.60;0.60;;;11.70;80.80;;;;;;4954807;29;20252;-76
2021/05/06 17:56:53;;;;;;;0.50;0.50;;;11.60;81.40;;;;;;4955470;28;20299;-77
2021/05/06 17:59:20;;;;;;;0.60;0.60;;;11.60;81.60;;;;;;4955246;28;20205;-79
2021/05/06 18:01:49;;;;;;;0.60;0.60;;;11.50;81.90;;;;;;4968539;28;20835;-77
2021/05/06 18:04:16;;;;;;;0.60;0.60;;;11.60;82.20;;;;;;4960355;28;20201;-77